Time;durP1;ratioP1;P1;durP2;ratioP2;P2;SDS_P1;SDS_P2;PMS_P1;PMS_P2;Temp;Humidity;BMP_temperature;BMP_pressure;BME280_temperature;BME280_humidity;BME280_pressure;Samples;Min_cycle;Max_cycle;Signal;HPM_P1;HPM_P2
2024/01/10 00:00:13;;;;;;;0.80;0.80;;;;;;;-6.89;69.79;102963.72;5093383;28;20036;-57
2024/01/10 00:02:38;;;;;;;0.70;0.70;;;;;;;-6.92;70.80;102964.22;5092979;28;20024;-56
2024/01/10 00:05:04;;;;;;;0.85;0.85;;;;;;;-6.82;70.76;102953.84;5093585;28;20406;-57
2024/01/10 00:07:29;;;;;;;0.70;0.70;;;;;;;-6.81;70.44;102953.13;5093125;28;20528;-57
2024/01/10 00:09:55;;;;;;;0.80;0.80;;;;;;;-6.86;70.20;102952.50;5092864;28;20081;-57
2024/01/10 00:12:21;;;;;;;0.80;0.80;;;;;;;-6.91;70.06;102945.09;5093424;28;20032;-57
2024/01/10 00:14:46;;;;;;;0.70;0.70;;;;;;;-6.88;70.23;102945.50;5093225;28;20032;-57
2024/01/10 00:17:11;;;;;;;0.70;0.70;;;;;;;-6.80;70.29;102944.94;5092657;28;20035;-57
2024/01/10 00:19:36;;;;;;;0.85;0.85;;;;;;;-6.79;69.37;102941.69;5093247;28;20031;-57
2024/01/10 00:22:02;;;;;;;0.68;0.68;;;;;;;-6.90;68.73;102939.38;5093205;28;20036;-57
2024/01/10 00:24:27;;;;;;;0.77;0.77;;;;;;;-6.84;68.10;102942.69;5092693;28;20024;-57
2024/01/10 00:26:52;;;;;;;0.65;0.65;;;;;;;-6.91;68.39;102933.44;5092977;28;20092;-57
2024/01/10 00:29:18;;;;;;;0.80;0.80;;;;;;;-6.80;68.70;102939.91;5092714;28;20110;-57
2024/01/10 00:31:43;;;;;;;0.80;0.80;;;;;;;-6.93;68.24;102938.97;5092665;28;20090;-57
2024/01/10 00:34:08;;;;;;;0.85;0.85;;;;;;;-6.83;69.17;102931.97;5093125;28;20024;-57
2024/01/10 00:36:33;;;;;;;0.80;0.80;;;;;;;-6.95;69.14;102936.25;5092487;28;20110;-57
2024/01/10 00:38:59;;;;;;;0.70;0.70;;;;;;;-6.84;69.60;102940.19;5092678;28;20024;-57
2024/01/10 00:41:24;;;;;;;0.80;0.80;;;;;;;-6.82;69.16;102937.19;5092493;28;20075;-57
2024/01/10 00:43:49;;;;;;;0.80;0.80;;;;;;;-6.81;69.66;102931.47;5092398;28;20089;-57
2024/01/10 00:46:15;;;;;;;0.77;0.77;;;;;;;-6.90;69.13;102930.25;5092546;28;20052;-57
2024/01/10 00:48:40;;;;;;;0.85;0.85;;;;;;;-6.93;70.02;102931.44;5093065;28;20036;-57
2024/01/10 00:51:08;;;;;;;0.80;0.80;;;;;;;-6.91;69.32;102930.06;5092041;28;20024;-57
2024/01/10 00:53:34;;;;;;;0.77;0.77;;;;;;;-6.89;70.08;102931.13;5092905;28;20024;-57
2024/01/10 00:56:00;;;;;;;0.88;0.88;;;;;;;-6.81;69.31;102931.47;5093097;28;20024;-57
2024/01/10 00:58:25;;;;;;;0.70;0.70;;;;;;;-6.89;68.69;102926.13;5092009;28;20024;-57
2024/01/10 01:00:50;;;;;;;0.73;0.73;;;;;;;-6.82;69.44;102928.75;5092684;28;20039;-57
2024/01/10 01:03:15;;;;;;;0.70;0.70;;;;;;;-6.92;69.22;102919.09;5092510;28;20032;-57
2024/01/10 01:05:41;;;;;;;0.80;0.80;;;;;;;-6.82;69.60;102926.25;5092057;28;20043;-57
2024/01/10 01:08:06;;;;;;;0.77;0.77;;;;;;;-6.95;70.00;102924.63;5093019;28;20103;-57
2024/01/10 01:10:32;;;;;;;0.70;0.70;;;;;;;-6.85;70.57;102918.34;5092560;28;20032;-57
2024/01/10 01:12:57;;;;;;;0.80;0.80;;;;;;;-6.88;69.86;102913.81;5092170;28;20451;-57
2024/01/10 01:15:22;;;;;;;0.90;0.90;;;;;;;-7.00;69.67;102919.69;5092536;28;20024;-57
2024/01/10 01:17:48;;;;;;;0.90;0.90;;;;;;;-7.01;70.22;102913.78;5092699;28;20479;-57
2024/01/10 01:20:13;;;;;;;0.80;0.80;;;;;;;-7.07;70.20;102917.97;5091524;28;20028;-57
2024/01/10 01:22:38;;;;;;;0.90;0.90;;;;;;;-7.03;71.52;102919.31;5093022;28;20028;-57
2024/01/10 01:25:04;;;;;;;0.90;0.90;;;;;;;-7.03;70.70;102925.22;5092546;28;20052;-57
2024/01/10 01:27:29;;;;;;;0.88;0.88;;;;;;;-6.95;70.59;102918.72;5091893;28;20033;-58
2024/01/10 01:29:55;;;;;;;0.80;0.80;;;;;;;-6.93;70.19;102918.91;5092718;28;20052;-58
2024/01/10 01:32:20;;;;;;;0.70;0.70;;;;;;;-6.90;70.99;102916.81;5092155;28;20032;-57
2024/01/10 01:34:45;;;;;;;0.70;0.70;;;;;;;-6.99;70.88;102922.41;5091987;28;20031;-58
2024/01/10 01:37:10;;;;;;;0.60;0.60;;;;;;;-7.15;72.40;102918.56;5092378;28;20035;-57
2024/01/10 01:39:36;;;;;;;0.80;0.80;;;;;;;-6.99;72.30;102922.41;5095408;28;20132;-57
2024/01/10 01:42:02;;;;;;;0.80;0.80;;;;;;;-7.10;72.27;102922.59;5095996;28;20032;-57
2024/01/10 01:44:27;;;;;;;0.70;0.70;;;;;;;-7.25;72.91;102918.03;5096111;28;20027;-57
2024/01/10 01:46:52;;;;;;;0.70;0.70;;;;;;;-7.23;75.71;102909.09;5095903;28;20020;-57
2024/01/10 01:49:18;;;;;;;0.80;0.80;;;;;;;-7.10;74.42;102910.06;5095395;28;20020;-57
2024/01/10 01:51:43;;;;;;;0.70;0.70;;;;;;;-7.13;73.55;102909.63;5096369;28;20056;-57
2024/01/10 01:54:09;;;;;;;0.70;0.70;;;;;;;-7.19;75.32;102907.22;5095600;28;20081;-57
2024/01/10 01:56:38;;;;;;;0.70;0.70;;;;;;;-7.07;74.78;102912.09;5095803;28;20028;-57
2024/01/10 01:59:04;;;;;;;0.77;0.77;;;;;;;-7.12;73.78;102908.94;5096071;28;20032;-57
2024/01/10 02:01:30;;;;;;;0.70;0.70;;;;;;;-7.04;74.04;102912.47;5094942;28;20020;-57
2024/01/10 02:03:55;;;;;;;0.80;0.80;;;;;;;-7.15;74.64;102908.56;5095852;28;20063;-57
2024/01/10 02:06:21;;;;;;;0.85;0.85;;;;;;;-7.08;74.91;102918.69;5095827;28;20051;-57
2024/01/10 02:08:46;;;;;;;0.60;0.60;;;;;;;-7.16;74.34;102909.25;5095173;28;20028;-57
2024/01/10 02:11:12;;;;;;;0.85;0.85;;;;;;;-7.23;74.96;102907.53;5095768;28;20085;-57
2024/01/10 02:13:37;;;;;;;0.70;0.70;;;;;;;-7.31;75.29;102905.56;5095709;28;20024;-57
2024/01/10 02:16:04;;;;;;;0.90;0.90;;;;;;;-7.15;74.87;102906.03;5095090;28;20028;-57
2024/01/10 02:18:30;;;;;;;0.80;0.80;;;;;;;-7.27;75.14;102902.78;5095297;28;20387;-57
2024/01/10 02:20:55;;;;;;;0.80;0.80;;;;;;;-7.15;75.67;102908.56;5095772;28;20043;-57
2024/01/10 02:23:20;;;;;;;0.80;0.80;;;;;;;-7.29;77.05;102904.19;5094683;28;20107;-57
2024/01/10 02:25:46;;;;;;;0.80;0.80;;;;;;;-7.31;76.71;102891.47;5095649;28;20487;-57
2024/01/10 02:28:11;;;;;;;0.80;0.80;;;;;;;-7.28;76.96;102901.88;5095148;28;20111;-57
2024/01/10 02:30:37;;;;;;;0.80;0.80;;;;;;;-7.19;77.08;102908.81;5094916;28;20069;-57
2024/01/10 02:33:02;;;;;;;0.80;0.80;;;;;;;-7.30;77.59;102895.75;5095360;28;20028;-56
2024/01/10 02:35:28;;;;;;;0.80;0.80;;;;;;;-7.19;77.13;102903.81;5095065;28;20384;-57
2024/01/10 02:37:54;;;;;;;0.75;0.75;;;;;;;-7.32;78.39;102903.75;5094924;28;20028;-57
2024/01/10 02:40:20;;;;;;;0.90;0.90;;;;;;;-7.26;77.98;102903.69;5094629;28;20043;-57
2024/01/10 02:42:45;;;;;;;0.75;0.75;;;;;;;-7.32;79.33;102894.66;5095121;28;20020;-57
2024/01/10 02:45:11;;;;;;;0.70;0.70;;;;;;;-7.27;79.80;102902.78;5094839;28;20032;-57
2024/01/10 02:47:37;;;;;;;0.80;0.80;;;;;;;-7.26;78.60;102889.56;5095301;28;20024;-57
2024/01/10 02:50:03;;;;;;;0.60;0.60;;;;;;;-7.29;77.67;102885.03;5094613;28;20045;-57
2024/01/10 02:52:28;;;;;;;0.80;0.80;;;;;;;-7.30;79.29;102883.22;5094389;28;20024;-57
2024/01/10 02:54:53;;;;;;;0.80;0.80;;;;;;;-7.22;78.83;102888.38;5094844;28;20046;-57
2024/01/10 02:57:18;;;;;;;0.70;0.70;;;;;;;-7.21;78.52;102885.19;5094427;28;20028;-58
2024/01/10 02:59:44;;;;;;;0.70;0.70;;;;;;;-7.22;78.66;102876.72;5094120;28;20031;-57
2024/01/10 03:02:09;;;;;;;0.90;0.90;;;;;;;-7.12;79.31;102874.75;5094666;28;20020;-57
2024/01/10 03:04:34;;;;;;;0.65;0.65;;;;;;;-7.10;79.19;102880.00;5094232;28;20076;-58
2024/01/10 03:07:00;;;;;;;0.80;0.80;;;;;;;-7.13;79.71;102875.47;5094654;28;20030;-57
2024/01/10 03:09:25;;;;;;;0.80;0.80;;;;;;;-7.20;79.73;102874.47;5094341;28;20028;-58
2024/01/10 03:11:50;;;;;;;0.82;0.82;;;;;;;-7.18;79.93;102868.94;5094164;28;20161;-57
2024/01/10 03:14:15;;;;;;;0.80;0.80;;;;;;;-7.17;79.32;102869.84;5094254;28;20055;-57
2024/01/10 03:16:41;;;;;;;0.70;0.70;;;;;;;-7.23;79.21;102866.50;5094438;28;20031;-57
2024/01/10 03:19:06;;;;;;;0.80;0.80;;;;;;;-7.13;79.25;102867.03;5093657;28;20110;-57
2024/01/10 03:21:31;;;;;;;0.80;0.80;;;;;;;-7.19;78.63;102866.22;5094308;28;20379;-57
2024/01/10 03:23:58;;;;;;;0.80;0.80;;;;;;;-7.23;78.57;102869.03;5094515;28;20073;-57
2024/01/10 03:26:24;;;;;;;0.90;0.90;;;;;;;-7.22;79.28;102865.81;5093146;28;20031;-57
2024/01/10 03:28:50;;;;;;;0.80;0.80;;;;;;;-7.14;79.02;102865.22;5094338;28;20031;-57
2024/01/10 03:31:16;;;;;;;0.88;0.88;;;;;;;-7.23;78.68;102864.00;5093783;28;20032;-57
2024/01/10 03:33:41;;;;;;;0.80;0.80;;;;;;;-7.14;79.15;102850.19;5093555;28;20032;-57
2024/01/10 03:36:09;;;;;;;0.80;0.80;;;;;;;-7.23;80.41;102853.97;5094498;28;20115;-57
2024/01/10 03:38:35;;;;;;;0.90;0.90;;;;;;;-7.24;80.06;102858.09;5094035;28;20034;-57
2024/01/10 03:41:00;;;;;;;0.70;0.70;;;;;;;-7.30;80.07;102853.16;5093455;28;20056;-57
2024/01/10 03:43:26;;;;;;;0.77;0.77;;;;;;;-7.28;79.53;102850.88;5093714;28;20032;-57
2024/01/10 03:45:51;;;;;;;0.73;0.73;;;;;;;-7.30;79.84;102855.66;5093575;28;20529;-57
2024/01/10 03:48:16;;;;;;;0.70;0.70;;;;;;;-7.19;79.78;102848.69;5093044;28;20111;-57
2024/01/10 03:50:41;;;;;;;0.75;0.75;;;;;;;-7.21;79.80;102852.59;5094098;28;20028;-57
2024/01/10 03:53:07;;;;;;;0.88;0.88;;;;;;;-7.16;79.24;102846.59;5093466;28;20035;-57
2024/01/10 03:55:32;;;;;;;0.70;0.70;;;;;;;-7.24;80.22;102839.66;5093285;28;20035;-57
2024/01/10 03:57:57;;;;;;;0.70;0.70;;;;;;;-7.28;80.87;102836.75;5093822;28;20036;-57
2024/01/10 04:00:23;;;;;;;0.80;0.80;;;;;;;-7.17;81.81;102837.25;5092504;28;20028;-57
2024/01/10 04:02:48;;;;;;;0.70;0.70;;;;;;;-7.29;82.94;102822.41;5093102;28;20039;-57
2024/01/10 04:05:13;;;;;;;0.80;0.80;;;;;;;-7.28;82.79;102826.72;5093538;28;20539;-57
2024/01/10 04:07:43;;;;;;;0.80;0.80;;;;;;;-7.29;83.24;102821.50;5093642;28;20020;-57
2024/01/10 04:10:10;;;;;;;0.80;0.80;;;;;;;-7.17;81.40;102824.75;5093443;28;20028;-57
2024/01/10 04:12:36;;;;;;;0.77;0.77;;;;;;;-7.21;82.30;102827.53;5093697;28;20482;-57
2024/01/10 04:15:01;;;;;;;0.70;0.70;;;;;;;-7.28;81.72;102823.31;5092632;28;20296;-57
2024/01/10 04:17:27;;;;;;;0.90;0.90;;;;;;;-7.16;81.57;102826.56;5093334;28;20464;-57
2024/01/10 04:19:52;;;;;;;0.77;0.77;;;;;;;-7.25;82.06;102820.31;5093141;28;20103;-57
2024/01/10 04:22:17;;;;;;;0.80;0.80;;;;;;;-7.16;82.23;102817.41;5092508;28;20479;-57
2024/01/10 04:24:43;;;;;;;0.70;0.70;;;;;;;-7.28;82.25;102819.22;5093520;28;20391;-57
2024/01/10 04:27:08;;;;;;;0.80;0.80;;;;;;;-7.15;82.33;102810.81;5093548;28;20357;-57
2024/01/10 04:29:33;;;;;;;0.90;0.90;;;;;;;-7.28;81.60;102815.81;5092098;28;20051;-57
2024/01/10 04:31:58;;;;;;;0.73;0.73;;;;;;;-7.15;81.57;102819.22;5093274;28;20357;-57
2024/01/10 04:34:24;;;;;;;0.80;0.80;;;;;;;-7.28;81.63;102811.69;5092794;28;20020;-57
2024/01/10 04:36:50;;;;;;;0.70;0.70;;;;;;;-7.18;82.01;102812.91;5092802;28;20399;-57
2024/01/10 04:39:15;;;;;;;0.90;0.90;;;;;;;-7.21;81.27;102812.50;5092590;28;20024;-57
2024/01/10 04:41:40;;;;;;;0.88;0.88;;;;;;;-7.13;80.97;102816.91;5092691;28;20273;-58
2024/01/10 04:44:05;;;;;;;0.90;0.90;;;;;;;-7.11;80.66;102815.53;5092567;28;20032;-57
2024/01/10 04:46:31;;;;;;;0.77;0.77;;;;;;;-7.25;81.20;102817.81;5093258;28;20176;-58
2024/01/10 04:48:56;;;;;;;0.70;0.70;;;;;;;-7.22;80.82;102820.72;5092818;28;20032;-57
2024/01/10 04:51:22;;;;;;;0.80;0.80;;;;;;;-7.14;81.12;102821.03;5092417;28;20141;-57
2024/01/10 04:53:47;;;;;;;0.90;0.90;;;;;;;-7.26;81.66;102816.00;5093105;28;20099;-57
2024/01/10 04:56:12;;;;;;;0.80;0.80;;;;;;;-7.30;82.18;102814.69;5092382;28;20027;-57
2024/01/10 04:58:38;;;;;;;0.80;0.80;;;;;;;-7.18;81.68;102822.94;5092479;28;20361;-57
2024/01/10 05:01:03;;;;;;;0.80;0.80;;;;;;;-7.20;81.49;102810.19;5092770;28;20036;-57
2024/01/10 05:03:28;;;;;;;0.70;0.70;;;;;;;-7.32;80.93;102813.56;5092501;28;20821;-57
2024/01/10 05:05:54;;;;;;;0.77;0.77;;;;;;;-7.28;80.77;102809.19;5092244;28;20019;-57
2024/01/10 05:08:20;;;;;;;0.77;0.77;;;;;;;-7.34;82.30;102813.38;5092760;28;20016;-57
2024/01/10 05:10:46;;;;;;;0.70;0.70;;;;;;;-7.21;82.13;102812.50;5092644;28;20016;-57
2024/01/10 05:13:12;;;;;;;0.80;0.80;;;;;;;-7.30;82.04;102805.56;5094679;28;20043;-57
2024/01/10 05:15:37;;;;;;;0.70;0.70;;;;;;;-7.28;83.27;102800.78;5096680;28;20024;-57
2024/01/10 05:18:03;;;;;;;0.73;0.73;;;;;;;-7.19;82.32;102807.00;5096200;28;20379;-57
2024/01/10 05:20:28;;;;;;;0.80;0.80;;;;;;;-7.26;81.68;102806.88;5096621;28;20028;-57
2024/01/10 05:22:53;;;;;;;0.80;0.80;;;;;;;-7.18;82.55;102807.88;5097025;28;20056;-57
2024/01/10 05:25:19;;;;;;;0.70;0.70;;;;;;;-7.19;82.29;102816.09;5095505;28;20031;-57
2024/01/10 05:27:44;;;;;;;0.77;0.77;;;;;;;-7.33;81.44;102806.78;5096598;28;20024;-57
2024/01/10 05:30:12;;;;;;;0.70;0.70;;;;;;;-7.21;81.46;102807.50;5096538;28;20012;-57
2024/01/10 05:32:37;;;;;;;0.70;0.70;;;;;;;-7.32;81.36;102809.47;5096054;28;20107;-57
2024/01/10 05:35:04;;;;;;;0.80;0.80;;;;;;;-7.22;82.15;102810.69;5096787;28;20020;-57
2024/01/10 05:37:30;;;;;;;0.80;0.80;;;;;;;-7.42;82.58;102801.44;5096112;28;20081;-57
2024/01/10 05:39:55;;;;;;;0.70;0.70;;;;;;;-7.35;83.67;102801.53;5095585;28;20048;-57
2024/01/10 05:42:20;;;;;;;0.70;0.70;;;;;;;-7.38;82.45;102807.78;5096205;28;20664;-57
2024/01/10 05:44:46;;;;;;;0.80;0.80;;;;;;;-7.45;82.52;102806.94;5096031;28;20621;-57
2024/01/10 05:47:11;;;;;;;0.75;0.75;;;;;;;-7.31;82.76;102817.88;5095485;28;20024;-57
2024/01/10 05:49:36;;;;;;;0.90;0.90;;;;;;;-7.35;82.33;102816.56;5096284;28;20110;-57
2024/01/10 05:52:02;;;;;;;0.70;0.70;;;;;;;-7.30;82.63;102812.19;5096099;28;20073;-57
2024/01/10 05:54:27;;;;;;;0.70;0.70;;;;;;;-7.40;82.59;102819.19;5095254;28;20031;-57
2024/01/10 05:56:52;;;;;;;0.68;0.68;;;;;;;-7.46;83.44;102821.78;5095794;28;20539;-57
2024/01/10 05:59:18;;;;;;;0.90;0.90;;;;;;;-7.56;83.93;102811.22;5095388;28;20035;-57
2024/01/10 06:01:43;;;;;;;0.80;0.80;;;;;;;-7.42;84.75;102815.56;5095475;28;20486;-57
2024/01/10 06:04:08;;;;;;;0.80;0.80;;;;;;;-7.61;85.65;102813.09;5096688;28;20024;-57
2024/01/10 06:06:34;;;;;;;0.80;0.80;;;;;;;-7.69;86.86;102809.59;5095392;28;20028;-57
2024/01/10 06:09:00;;;;;;;0.80;0.80;;;;;;;-7.69;88.43;102809.59;5095585;28;20103;-57
2024/01/10 06:11:25;;;;;;;0.80;0.80;;;;;;;-7.87;88.93;102812.13;5095789;28;20020;-57
2024/01/10 06:13:50;;;;;;;0.88;0.88;;;;;;;-7.72;88.32;102814.19;5095549;28;20040;-57
2024/01/10 06:16:16;;;;;;;0.90;0.90;;;;;;;-7.70;87.74;102807.75;5094994;28;20016;-57
2024/01/10 06:18:42;;;;;;;0.80;0.80;;;;;;;-7.78;88.46;102803.34;5095641;28;20356;-57
2024/01/10 06:21:07;;;;;;;0.85;0.85;;;;;;;-7.68;89.59;102801.38;5095518;28;20016;-57
2024/01/10 06:23:33;;;;;;;0.75;0.75;;;;;;;-7.63;88.59;102799.47;5094082;28;20036;-58
2024/01/10 06:25:58;;;;;;;0.70;0.70;;;;;;;-7.74;89.46;102794.66;5095356;28;20028;-58
2024/01/10 06:28:23;;;;;;;0.80;0.80;;;;;;;-7.73;89.30;102797.34;5094491;28;20455;-57
2024/01/10 06:30:49;;;;;;;0.70;0.70;;;;;;;-7.75;89.84;102803.75;5095616;28;20028;-57
2024/01/10 06:33:15;;;;;;;0.80;0.80;;;;;;;-7.83;90.59;102801.81;5095251;28;20383;-57
2024/01/10 06:35:43;;;;;;;0.70;0.70;;;;;;;-7.67;90.44;102799.75;5094556;28;20024;-58
2024/01/10 06:38:09;;;;;;;0.82;0.82;;;;;;;-7.78;90.97;102793.34;5095444;28;20031;-57
2024/01/10 06:40:34;;;;;;;0.90;0.90;;;;;;;-7.76;90.89;102796.91;5094915;28;20127;-57
2024/01/10 06:42:59;;;;;;;0.80;0.80;;;;;;;-7.67;90.94;102803.19;5094474;28;20103;-57
2024/01/10 06:45:26;;;;;;;0.80;0.80;;;;;;;-7.78;90.55;102798.34;5094942;28;20020;-57
2024/01/10 06:47:51;;;;;;;0.82;0.82;;;;;;;-7.68;90.77;102792.94;5095072;28;20020;-57
2024/01/10 06:50:19;;;;;;;0.85;0.85;;;;;;;-7.78;91.27;102800.84;5094330;28;20383;-57
2024/01/10 06:52:44;;;;;;;;;;;;;;;-7.69;90.77;102799.56;5095598;28;20016;-57
2024/01/10 06:55:09;;;;;;;0.90;0.90;;;;;;;-7.70;90.80;102807.75;5094594;28;19932;-57
2024/01/10 06:57:35;;;;;;;0.80;0.80;;;;;;;-7.88;91.57;102812.81;5094389;28;20692;-57
2024/01/10 07:00:03;;;;;;;0.90;0.90;;;;;;;-7.75;91.40;102812.88;5094874;28;20139;-57
2024/01/10 07:02:28;;;;;;;0.80;0.80;;;;;;;-7.84;92.32;102807.53;5094297;28;20024;-57
2024/01/10 07:04:53;;;;;;;0.80;0.80;;;;;;;-7.89;92.98;102806.00;5094357;28;20095;-57
2024/01/10 07:07:19;;;;;;;0.77;0.77;;;;;;;-7.92;92.78;102810.59;5094404;28;20080;-57
2024/01/10 07:09:44;;;;;;;0.80;0.80;;;;;;;-7.82;92.94;102811.16;5094308;28;20039;-57
2024/01/10 07:12:09;;;;;;;0.77;0.77;;;;;;;-7.81;92.66;102822.94;5093639;28;20085;-57
2024/01/10 07:14:35;;;;;;;1.00;1.00;;;;;;;-7.83;92.52;102814.34;5094832;28;20039;-57
2024/01/10 07:17:00;;;;;;;0.80;0.80;;;;;;;-7.86;92.30;102808.91;5094475;28;20057;-57
2024/01/10 07:19:25;;;;;;;0.80;0.80;;;;;;;-8.01;93.25;102813.66;5093542;28;20024;-57
2024/01/10 07:21:51;;;;;;;0.80;0.80;;;;;;;-7.98;93.58;102831.59;5094554;28;20027;-57
2024/01/10 07:24:16;;;;;;;0.70;0.70;;;;;;;-7.88;93.60;102825.31;5093844;28;20394;-57
2024/01/10 07:26:41;;;;;;;0.68;0.68;;;;;;;-7.98;94.42;102824.09;5093717;28;20031;-57
2024/01/10 07:29:09;;;;;;;0.70;0.70;;;;;;;-8.03;94.80;102822.56;5094358;28;20049;-57
2024/01/10 07:31:35;;;;;;;0.80;0.80;;;;;;;-7.91;94.40;102819.88;5093999;28;20024;-57
2024/01/10 07:34:00;;;;;;;0.80;0.80;;;;;;;-8.09;95.60;102811.72;5093348;28;20494;-57
2024/01/10 07:36:33;;;;;;;0.80;0.80;;;;;;;-8.08;97.49;102803.53;5093693;28;20028;-57
2024/01/10 07:38:59;;;;;;;0.70;0.70;;;;;;;-7.97;97.54;102794.94;5093217;28;20523;-57
2024/01/10 07:41:24;;;;;;;0.80;0.80;;;;;;;-7.99;97.31;102802.25;5093429;28;20182;-57
2024/01/10 07:43:50;;;;;;;0.70;0.70;;;;;;;-8.03;97.88;102795.03;5094059;28;20021;-57
2024/01/10 07:46:15;;;;;;;0.90;0.90;;;;;;;-7.94;97.46;102797.84;5093195;28;20020;-57
2024/01/10 07:48:40;;;;;;;0.70;0.70;;;;;;;-7.91;97.06;102797.38;5094051;28;20039;-57
2024/01/10 07:51:06;;;;;;;0.80;0.80;;;;;;;-7.90;96.25;102796.66;5093555;28;20144;-57
2024/01/10 07:53:32;;;;;;;0.80;0.80;;;;;;;-7.95;96.99;102799.47;5093033;28;20032;-57
2024/01/10 07:55:57;;;;;;;0.90;0.90;;;;;;;-7.89;96.19;102798.50;5093643;28;20486;-57
2024/01/10 07:58:22;;;;;;;0.80;0.80;;;;;;;-7.88;95.77;102783.66;5093340;28;20027;-58
2024/01/10 08:00:48;;;;;;;0.85;0.85;;;;;;;-7.85;95.49;102795.69;5093201;28;20025;-57
2024/01/10 08:03:13;;;;;;;0.73;0.73;;;;;;;-7.92;95.34;102798.97;5093382;28;20020;-57
2024/01/10 08:05:38;;;;;;;0.80;0.80;;;;;;;-7.91;95.14;102798.28;5093439;28;20081;-57
2024/01/10 08:08:04;;;;;;;0.90;0.90;;;;;;;-7.94;95.67;102798.78;5092962;28;20082;-57
2024/01/10 08:10:29;;;;;;;0.70;0.70;;;;;;;-7.82;95.51;102809.53;5092928;28;20491;-57
2024/01/10 08:12:54;;;;;;;0.80;0.80;;;;;;;-7.85;94.56;102806.63;5093311;28;20023;-57
2024/01/10 08:15:22;;;;;;;0.90;0.90;;;;;;;-7.77;95.15;102803.53;5092637;28;20027;-57
2024/01/10 08:17:47;;;;;;;0.80;0.80;;;;;;;-7.72;95.51;102804.19;5093299;28;20024;-57
2024/01/10 08:20:14;;;;;;;0.90;0.90;;;;;;;-7.74;95.42;102813.06;5092789;28;20028;-57
2024/01/10 08:22:40;;;;;;;0.80;0.80;;;;;;;-7.70;94.81;102815.28;5092620;28;20062;-57
2024/01/10 08:25:06;;;;;;;0.80;0.80;;;;;;;-7.70;94.46;102817.78;5093249;28;20051;-57
2024/01/10 08:27:33;;;;;;;0.80;0.80;;;;;;;-7.58;94.28;102805.09;5093112;28;20024;-57
2024/01/10 08:29:58;;;;;;;0.80;0.80;;;;;;;-7.63;94.57;102809.47;5093080;28;20028;-57
2024/01/10 08:32:24;;;;;;;0.80;0.80;;;;;;;-7.58;93.98;102817.63;5092858;28;20032;-57
2024/01/10 08:34:49;;;;;;;0.80;0.80;;;;;;;-7.47;93.12;102819.97;5093185;28;20028;-57
2024/01/10 08:37:17;;;;;;;0.80;0.80;;;;;;;-7.50;93.49;102814.53;5092349;28;20043;-57
2024/01/10 08:39:42;;;;;;;0.80;0.80;;;;;;;-7.38;93.84;102816.19;5092761;28;20047;-57
2024/01/10 08:42:09;;;;;;;0.80;0.80;;;;;;;-7.33;92.61;102820.19;5092372;28;20025;-57
2024/01/10 08:44:35;;;;;;;0.80;0.80;;;;;;;-7.37;93.35;102810.47;5093259;28;20020;-57
2024/01/10 08:47:00;;;;;;;0.90;0.90;;;;;;;-7.30;92.92;102810.56;5092466;28;20757;-57
2024/01/10 08:49:26;;;;;;;0.80;0.80;;;;;;;-7.24;92.65;102812.09;5091845;28;20119;-57
2024/01/10 08:51:53;;;;;;;0.80;0.80;;;;;;;-7.14;92.64;102810.09;5092745;28;20035;-57
2024/01/10 08:54:19;;;;;;;0.70;0.70;;;;;;;-7.04;92.24;102818.13;5092064;28;20369;-57
2024/01/10 08:56:48;;;;;;;0.90;0.90;;;;;;;-6.98;91.15;102808.03;5092307;28;20891;-57
2024/01/10 08:59:13;;;;;;;0.70;0.70;;;;;;;-6.92;91.56;102813.81;5092823;28;20024;-58
2024/01/10 09:01:38;;;;;;;0.80;0.80;;;;;;;-6.97;89.72;102810.72;5092685;28;20031;-57
2024/01/10 09:04:05;;;;;;;0.80;0.80;;;;;;;-6.88;89.63;102812.63;5092175;28;20038;-57
2024/01/10 09:06:32;;;;;;;0.80;0.80;;;;;;;-6.85;88.94;102823.06;5092586;28;20024;-57
2024/01/10 09:08:57;;;;;;;0.70;0.70;;;;;;;-6.79;88.68;102826.34;5092524;28;20024;-57
2024/01/10 09:11:22;;;;;;;0.80;0.80;;;;;;;-6.67;88.78;102827.09;5092161;28;20099;-57
2024/01/10 09:13:47;;;;;;;0.85;0.85;;;;;;;-6.66;87.07;102822.25;5092890;28;20387;-57
2024/01/10 09:16:13;;;;;;;0.77;0.77;;;;;;;-6.55;87.05;102827.78;5092124;28;20024;-57
2024/01/10 09:18:39;;;;;;;0.90;0.90;;;;;;;-6.50;86.61;102826.75;5092087;28;20126;-57
2024/01/10 09:21:05;;;;;;;0.70;0.70;;;;;;;-6.36;86.08;102821.03;5092409;28;20028;-57
2024/01/10 09:23:30;;;;;;;0.90;0.90;;;;;;;-6.23;85.61;102828.53;5090967;28;20020;-57
2024/01/10 09:25:56;;;;;;;0.90;0.90;;;;;;;-6.05;85.88;102835.00;5092261;28;20107;-57
2024/01/10 09:28:21;;;;;;;0.90;0.90;;;;;;;-5.92;85.70;102832.44;5092158;28;20032;-57
2024/01/10 09:30:46;;;;;;;0.85;0.85;;;;;;;-5.84;84.74;102826.75;5092574;28;20387;-57
2024/01/10 09:33:12;;;;;;;0.70;0.70;;;;;;;-5.92;81.78;102832.44;5091677;28;20365;-57
2024/01/10 09:35:38;;;;;;;0.80;0.80;;;;;;;-5.91;80.93;102829.19;5092535;28;20055;-57
2024/01/10 09:38:03;;;;;;;0.80;0.80;;;;;;;-5.86;80.21;102834.09;5092195;28;20031;-57
2024/01/10 09:40:29;;;;;;;0.80;0.80;;;;;;;-5.81;79.39;102837.19;5091516;28;20094;-58
2024/01/10 09:42:54;;;;;;;0.80;0.80;;;;;;;-5.77;79.02;102844.44;5092015;28;20063;-57
2024/01/10 09:45:21;;;;;;;0.65;0.65;;;;;;;-5.64;79.35;102837.72;5090855;28;20059;-57
2024/01/10 09:47:49;;;;;;;0.80;0.80;;;;;;;-5.67;77.82;102842.38;5092408;28;20464;-56
2024/01/10 09:50:15;;;;;;;0.70;0.70;;;;;;;-5.61;78.24;102839.72;5091758;28;20500;-56
2024/01/10 09:52:50;;;;;;;0.80;0.80;;;;;;;-5.53;77.73;102840.69;5091761;28;20460;-57
2024/01/10 09:55:16;;;;;;;0.70;0.70;;;;;;;-5.47;77.77;102832.31;5092157;28;20024;-57
2024/01/10 09:57:42;;;;;;;0.70;0.70;;;;;;;-5.31;78.17;102844.28;5092063;28;20092;-57
2024/01/10 10:00:10;;;;;;;0.70;0.70;;;;;;;-5.20;76.89;102841.53;5094155;28;20024;-57
2024/01/10 10:02:38;;;;;;;0.68;0.68;;;;;;;-5.04;73.93;102843.44;5095904;28;20036;-57
2024/01/10 10:05:07;;;;;;;;;;;;;;;-4.84;78.32;102849.31;5096132;28;20020;-56
2024/01/10 10:07:43;;;;;;;0.80;0.80;;;;;;;-4.57;72.35;102844.97;5094971;28;19919;-56
2024/01/10 10:10:09;;;;;;;0.60;0.60;;;;;;;-4.27;72.96;102842.78;5096039;28;20103;-57
2024/01/10 10:12:44;;;;;;;0.70;0.70;;;;;;;-3.94;69.80;102834.97;5095357;28;20184;-57
2024/01/10 10:15:14;;;;;;;0.70;0.70;;;;;;;-3.81;66.67;102837.31;5094275;28;20096;-57
2024/01/10 10:17:46;;;;;;;0.63;0.63;;;;;;;-3.60;64.33;102838.09;5095144;28;20016;-58
2024/01/10 10:20:13;;;;;;;0.60;0.60;;;;;;;-3.46;63.85;102835.56;5095354;28;20032;-57
2024/01/10 10:22:39;;;;;;;0.63;0.63;;;;;;;-3.28;64.10;102831.78;5095085;28;20039;-57
2024/01/10 10:25:04;;;;;;;0.60;0.60;;;;;;;-3.32;62.34;102829.63;5095641;28;20028;-57
2024/01/10 10:27:30;;;;;;;0.60;0.60;;;;;;;-3.36;62.52;102832.53;5094374;28;20499;-57
2024/01/10 10:29:55;;;;;;;0.70;0.70;;;;;;;-3.39;62.74;102828.03;5094658;28;20035;-57
2024/01/10 10:32:21;;;;;;;0.60;0.60;;;;;;;-3.40;62.22;102835.41;5094073;28;20383;-57
2024/01/10 10:34:46;;;;;;;0.60;0.60;;;;;;;-3.19;62.46;102829.44;5094918;28;20077;-56
2024/01/10 10:37:11;;;;;;;0.60;0.60;;;;;;;-3.38;62.02;102818.81;5094836;28;20368;-57
2024/01/10 10:39:38;;;;;;;0.50;0.50;;;;;;;-3.36;62.13;102817.41;5094816;28;20044;-56
2024/01/10 10:42:04;;;;;;;0.60;0.60;;;;;;;-3.23;62.43;102819.72;5094780;28;20057;-57
2024/01/10 10:44:35;;;;;;;0.70;0.70;;;;;;;-3.07;61.07;102813.22;5094398;28;20837;-57
2024/01/10 10:47:05;;;;;;;0.50;0.50;;;;;;;-3.08;61.15;102808.91;5095173;28;20028;-57
2024/01/10 10:49:32;;;;;;;0.70;0.70;;;;;;;-2.93;60.18;102816.44;5094162;28;20028;-57
2024/01/10 10:52:00;;;;;;;0.60;0.60;;;;;;;-2.86;59.57;102813.91;5095165;28;20031;-57
2024/01/10 10:54:29;;;;;;;0.60;0.60;;;;;;;-2.87;58.78;102823.09;5094589;28;20043;-57
2024/01/10 10:56:57;;;;;;;0.60;0.60;;;;;;;-2.60;58.93;102821.06;5094425;28;20028;-57
2024/01/10 10:59:23;;;;;;;;;;;;;;;-2.27;62.50;102815.50;5094935;28;20036;-57
2024/01/10 11:01:50;;;;;;;0.60;0.60;;;;;;;-2.10;57.72;102808.22;5094836;28;19916;-57
2024/01/10 11:04:15;;;;;;;0.60;0.60;;;;;;;-1.97;57.54;102804.53;5094240;28;20048;-57
2024/01/10 11:06:41;;;;;;;0.50;0.50;;;;;;;-1.70;56.20;102810.13;5094772;28;20066;-57
2024/01/10 11:09:14;;;;;;;0.60;0.60;;;;;;;-1.46;55.25;102812.66;5094557;28;20027;-57
2024/01/10 11:11:58;;;;;;;0.60;0.60;;;;;;;-1.24;54.79;102803.25;5093824;28;20020;-57
2024/01/10 11:14:45;;;;;;;0.50;0.50;;;;;;;-1.24;54.18;102804.16;5094350;28;20051;-57
2024/01/10 11:17:41;;;;;;;0.50;0.50;;;;;;;-1.06;54.25;102809.41;5093962;28;20032;-57
2024/01/10 11:20:21;;;;;;;0.40;0.40;;;;;;;-0.86;52.83;102809.03;5094429;28;20035;-58